首页
METAR-TAF:

METAR-TAF

机场 :

托尔马切沃机场

新西伯利亚, 俄罗斯

纬度: 55-01N, 经度: 082-38E, 海拔: 111米

当前天气观测

该预报发布于33分钟前的01:30 UTC
风速8节,风向东北
温度 6°C
湿度 100%
气压 1011 hPa
能见度10公里或以上
多云层高于400英尺
阴天层高于2600英尺

METAR: UNNT 260130Z 04004MPS 9999 BKN004 OVC026 06/06 Q1011 R25/290160 R34/290160 NOSIG RMK QBB130 QFE748/0997

时间: 09:03 (02:03 UTC)

预报

该预报发布于1小时和22分钟前的00:41 UTC
预报有效从26日的 01点(UTC)到 26日的 24点(UTC)
风速10节,风向北转东北,有时为19节阵风
能见度10公里或以上
多云层高于500英尺
多云层高于1100英尺, 积雨云.
小阵雨
短暂存在
从 26日的 01点(UTC)到 26日的 06点(UTC)
能見度: 1500
多云层高于200英尺
多云层高于1000英尺, 积雨云.
轻雾
从 26日的 0600点(UTC)
风速12节,风向北转东北,有时为23节阵风
能见度10公里或以上
多云层高于1100英尺, 积雨云.
短暂存在
从 26日的 06点(UTC)到 26日的 24点(UTC)
风速16节,风向,有时为29节阵风
能見度: 3100
多云层高于1000英尺, 积雨云.
小阵雨
几率 40% :
短暂存在
从 26日的 06点(UTC)到 26日的 24点(UTC)
雷暴, 小雨

TAF: UNNT 260041Z 2601/2624 03005G10MPS 9999 -SHRA BKN005 BKN011CB TEMPO 2601/2606 1500 BR BKN002 BKN010CB FM260600 02006G12MPS 9999 BKN011CB TEMPO 2606/2624 36008G15MPS 3100 -SHRA BKN010CB PROB40 TEMPO 2606/2624 -TSRA

超过4000个机场的气象观测和天气预报(METAR&TAF报告)。

可查询的气象台以黄色和红色小点在地图上表示。

将鼠标移到小点上方,可查看气象台名称。

然后点击查看天气观测和预报。

如需切换地图:点击带黑十字的绿色按钮放大地图;点击带横线的绿色按钮缩小地图;或者点击绿色箭头查看邻近地区的地图。


METAR-TAF: